Cordell, OK

6:34 AM CST on February 01, 2015 (GMT -0600)
Hobart Municipal | Change Station
CLOSE
Current Station
Airport
Location: Hobart,
Elevation: 1565 ft
Nearby Weather Stations
Active Advisory: Wind Advisory

Elev 1565 ft 34.99 °N, 99.05 °W | Updated 41 minutes ago

Overcast
Overcast
43 °F
Feels Like 33 °F
N
25
Wind Variable Wind from North
Gusts 34 mph

Today
High -- | Low -- °F
--% Chance of Precip.
Yesterday
High -- | Low -- °F
Precip. -- in
7:35 AM 6:04 PM
Waxing Gibbous, 94% visible
Pressure 29.91 in
Visibility 10.0 miles
Clouds Scattered Clouds 1900 ft
Scattered Clouds 4400 ft
Overcast 10000 ft
Windchill 33 °F
Dew Point 38 °F
Humidity 82%
Rainfall 0.00 in
Snow Depth Not available.
UV 0 out of 12
Pollen 2.80 out of 12
Air Quality Not available.
Flu Activity Not available.
METAR KHBR 011153Z AUTO 35022G30KT 10SM SCT019 SCT044 OVC100 06/03 A2990 RMK AO2 PK WND 35030/1147 SLP127 60000 70040 T00610033 10061 20056 53025

More Conditions Fewer Conditions

Pressure 29.91 in
Visibility 10.0 miles
Clouds Scattered Clouds 1900 ft
Scattered Clouds 4400 ft
Overcast 10000 ft
Windchill 33 °F
Dew Point 38 °F
Humidity 82%
Rainfall 0.00 in
Snow Depth Not available.
UV 0 out of 12
Pollen 2.80 out of 12
Air Quality Not available.
Flu Activity Not available.
METAR KHBR 011153Z AUTO 35022G30KT 10SM SCT019 SCT044 OVC100 06/03 A2990 RMK AO2 PK WND 35030/1147 SLP127 60000 70040 T00610033 10061 20056 53025

More Conditions Fewer Conditions

10-Day Weather Forecast

Almanac

Astronomy

Feb. 01, 2015 Rise Set
Actual Time
Civil Twilight
Nautical Twilight
Astronomical Twilight
Moon
Length of Visible Light
Length of Day
Tomorrow will be .
, % of the Moon is Illuminated

Today's Extremes

State Highs State Lows

Community

WunderPhotos

Upload Photos

1,792,352 photos uploaded!

WunderBlogs® & News

Nearby

Air Quality

  Air Quality AQ Index Pollutant
Not available.

Snow Depth

Station Depth Elevation

Earthquake Activity

City Distance Mag. Time & Date
Minimum magnitude displayed is 2.5.

Coastal Water Temperatures

Place Temperature

Nearby Weather Stations